Time;durP1;ratioP1;P1;durP2;ratioP2;P2;SDS_P1;SDS_P2;PMS_P1;PMS_P2;Temp;Humidity;BMP_temperature;BMP_pressure;BME280_temperature;BME280_humidity;BME280_pressure;Samples;Min_cycle;Max_cycle;Signal;HPM_P1;HPM_P2
2023/11/09 00:01:19;;;;;;;;;1.67;1.67;;;;;-144.24;100.00;60536.00;4979969;28;69889;-73
2023/11/09 00:03:44;;;;;;;;;1.67;1.00;;;;;-144.24;100.00;60536.00;4984014;28;55509;-71
2023/11/09 00:06:10;;;;;;;;;1.00;1.00;;;;;-144.24;100.00;60536.00;4978603;28;62648;-71
2023/11/09 00:08:37;;;;;;;;;1.00;1.00;;;;;-144.24;100.00;60536.00;4980069;28;45292;-71
2023/11/09 00:11:02;;;;;;;;;0.33;0.33;;;;;-144.24;100.00;60536.00;4982463;28;45618;-74
2023/11/09 00:13:28;;;;;;;;;0.00;0.00;;;;;-144.24;100.00;60536.00;4978341;28;45450;-73
2023/11/09 00:15:55;;;;;;;;;2.00;2.00;;;;;-144.24;100.00;60536.00;4982883;28;69274;-71
2023/11/09 00:18:23;;;;;;;;;1.00;1.00;;;;;-144.24;100.00;60536.00;4980902;28;45434;-70
2023/11/09 00:20:52;;;;;;;;;1.00;1.00;;;;;-144.24;100.00;60536.00;4979376;28;45762;-73
2023/11/09 00:23:18;;;;;;;;;1.00;1.00;;;;;-144.24;100.00;60536.00;4978334;28;45379;-71
2023/11/09 00:25:44;;;;;;;;;0.00;0.00;;;;;-144.24;100.00;60536.00;4981023;28;45327;-71
2023/11/09 00:28:09;;;;;;;;;0.00;0.00;;;;;-144.24;100.00;60536.00;4982870;28;45597;-74
2023/11/09 00:30:35;;;;;;;;;1.67;1.00;;;;;-144.24;100.00;60536.00;4977449;28;46244;-75
2023/11/09 00:33:00;;;;;;;;;1.00;1.00;;;;;-144.24;100.00;60536.00;4980936;28;64665;-71
2023/11/09 00:35:25;;;;;;;;;1.33;1.00;;;;;-144.24;100.00;60536.00;4980665;28;45196;-72
2023/11/09 00:37:51;;;;;;;;;1.00;1.00;;;;;-144.24;100.00;60536.00;4977056;28;66944;-71
2023/11/09 00:40:16;;;;;;;;;0.00;0.00;;;;;-144.24;100.00;60536.00;4979189;28;45589;-71
2023/11/09 00:42:42;;;;;;;;;0.00;0.00;;;;;-144.24;100.00;60536.00;4979013;28;71150;-71
2023/11/09 00:45:08;;;;;;;;;1.67;1.00;;;;;-144.24;100.00;60536.00;4982088;28;45284;-73
2023/11/09 00:47:33;;;;;;;;;1.00;1.00;;;;;-144.24;100.00;60536.00;4977241;28;45437;-71
2023/11/09 00:49:59;;;;;;;;;0.00;0.00;;;;;-144.24;100.00;60536.00;4984802;28;45607;-71
2023/11/09 00:52:24;;;;;;;;;1.00;1.00;;;;;-144.24;100.00;60536.00;4977776;28;45406;-71
2023/11/09 00:54:51;;;;;;;;;1.00;0.00;;;;;-144.24;100.00;60536.00;4979592;28;69870;-73
2023/11/09 00:57:16;;;;;;;;;0.00;0.00;;;;;-144.24;100.00;60536.00;4977490;28;45476;-71
2023/11/09 00:59:46;;;;;;;;;0.00;0.00;;;;;-144.24;100.00;60536.00;4982908;28;46063;-71
2023/11/09 01:02:11;;;;;;;;;0.00;0.00;;;;;-144.24;100.00;60536.00;4983906;28;45453;-71
2023/11/09 01:04:37;;;;;;;;;1.67;0.67;;;;;-144.24;100.00;60536.00;4980807;28;45514;-71
2023/11/09 01:07:03;;;;;;;;;0.00;0.00;;;;;-144.24;100.00;60536.00;4977954;28;45193;-72
2023/11/09 01:09:28;;;;;;;;;0.00;0.00;;;;;-144.24;100.00;60536.00;4978155;28;45584;-71
2023/11/09 01:11:55;;;;;;;;;0.00;0.00;;;;;-144.24;100.00;60536.00;4976558;28;72170;-73
2023/11/09 01:14:20;;;;;;;;;0.00;0.00;;;;;-144.24;100.00;60536.00;4980280;28;45569;-73
2023/11/09 01:16:46;;;;;;;;;0.00;0.00;;;;;-144.24;100.00;60536.00;4977776;28;45426;-71
2023/11/09 01:19:11;;;;;;;;;1.00;0.00;;;;;-144.24;100.00;60536.00;4975935;28;47465;-73
2023/11/09 01:21:36;;;;;;;;;0.00;0.00;;;;;-144.24;100.00;60536.00;4983221;28;73974;-71
2023/11/09 01:24:02;;;;;;;;;2.33;0.00;;;;;-144.24;100.00;60536.00;4982786;28;68179;-73
2023/11/09 01:26:28;;;;;;;;;0.00;0.00;;;;;-144.24;100.00;60536.00;4977139;28;57184;-71
2023/11/09 01:28:53;;;;;;;;;0.00;0.00;;;;;-144.24;100.00;60536.00;4980810;28;46242;-73
2023/11/09 01:31:19;;;;;;;;;0.00;0.00;;;;;-144.24;100.00;60536.00;4978598;28;54437;-72
2023/11/09 01:33:44;;;;;;;;;0.00;0.00;;;;;-144.24;100.00;60536.00;4983769;28;45476;-75
2023/11/09 01:36:13;;;;;;;;;0.00;0.00;;;;;-144.24;100.00;60536.00;4977284;28;45474;-71
2023/11/09 01:38:39;;;;;;;;;0.00;0.00;;;;;-144.24;100.00;60536.00;4981496;28;46195;-72
2023/11/09 01:41:06;;;;;;;;;0.00;0.00;;;;;-144.24;100.00;60536.00;4980466;28;73158;-71
2023/11/09 01:43:32;;;;;;;;;0.00;0.00;;;;;-144.24;100.00;60536.00;4977404;28;45465;-72
2023/11/09 01:45:57;;;;;;;;;0.00;0.00;;;;;-144.24;100.00;60536.00;4984339;28;45360;-71
2023/11/09 01:48:22;;;;;;;;;0.00;0.00;;;;;-144.24;100.00;60536.00;4978131;28;46308;-71
2023/11/09 01:50:51;;;;;;;;;0.00;0.00;;;;;-144.24;100.00;60536.00;4991049;28;73340;-71
2023/11/09 01:53:17;;;;;;;;;1.00;0.00;;;;;-144.24;100.00;60536.00;4981854;28;45362;-75
2023/11/09 01:55:42;;;;;;;;;0.00;0.00;;;;;-144.24;100.00;60536.00;4992253;28;45208;-71
2023/11/09 01:58:08;;;;;;;;;0.00;0.00;;;;;-144.24;100.00;60536.00;4979219;28;46465;-71
2023/11/09 02:00:34;;;;;;;;;0.00;0.00;;;;;-144.24;100.00;60536.00;4977049;28;51197;-71
2023/11/09 02:02:59;;;;;;;;;0.00;0.00;;;;;-144.24;100.00;60536.00;4984237;28;65630;-71
2023/11/09 02:05:25;;;;;;;;;0.00;0.00;;;;;-144.24;100.00;60536.00;4977782;28;45555;-72
2023/11/09 02:07:53;;;;;;;;;0.00;0.00;;;;;-144.24;100.00;60536.00;4975745;28;68322;-71
2023/11/09 02:10:19;;;;;;;;;1.00;0.00;;;;;-144.24;100.00;60536.00;4978555;28;45705;-71
2023/11/09 02:12:44;;;;;;;;;0.00;0.00;;;;;-144.24;100.00;60536.00;4979132;28;45362;-73
2023/11/09 02:15:09;;;;;;;;;0.00;0.00;;;;;-144.24;100.00;60536.00;4979196;28;67879;-73
2023/11/09 02:17:35;;;;;;;;;0.33;0.00;;;;;-144.24;100.00;60536.00;4996901;28;48702;-71
2023/11/09 02:20:00;;;;;;;;;0.00;0.00;;;;;-144.24;100.00;60536.00;4976764;28;45308;-72
2023/11/09 02:22:26;;;;;;;;;1.00;0.00;;;;;-144.24;100.00;60536.00;4982771;28;69520;-71
2023/11/09 02:24:53;;;;;;;;;1.00;1.00;;;;;-144.24;100.00;60536.00;4979162;28;45377;-73
2023/11/09 02:27:18;;;;;;;;;0.33;0.33;;;;;-144.24;100.00;60536.00;4983693;28;46444;-72
2023/11/09 02:29:43;;;;;;;;;3.00;0.00;;;;;-144.24;100.00;60536.00;4981371;28;70951;-74
2023/11/09 02:32:09;;;;;;;;;2.67;0.00;;;;;-144.24;100.00;60536.00;4984217;28;46846;-70
2023/11/09 02:34:37;;;;;;;;;0.00;0.00;;;;;-144.24;100.00;60536.00;4984800;28;53596;-73
2023/11/09 02:37:07;;;;;;;;;3.00;0.00;;;;;-144.24;100.00;60536.00;4986881;28;47430;-73
2023/11/09 02:39:32;;;;;;;;;1.67;1.00;;;;;-144.24;100.00;60536.00;4977415;28;45473;-71
2023/11/09 02:41:58;;;;;;;;;0.00;0.00;;;;;-144.24;100.00;60536.00;4976891;28;45232;-73
2023/11/09 02:44:23;;;;;;;;;1.00;0.00;;;;;-144.24;100.00;60536.00;4979093;28;45450;-71
2023/11/09 02:46:49;;;;;;;;;3.00;0.00;;;;;-144.24;100.00;60536.00;4981431;28;75466;-74
2023/11/09 02:49:14;;;;;;;;;1.00;1.00;;;;;-144.24;100.00;60536.00;4978884;28;55862;-69
2023/11/09 02:51:39;;;;;;;;;0.00;0.00;;;;;-144.24;100.00;60536.00;4979874;28;45288;-73
2023/11/09 02:54:05;;;;;;;;;2.67;1.00;;;;;-144.24;100.00;60536.00;4978958;28;67548;-74
2023/11/09 02:56:30;;;;;;;;;2.00;1.00;;;;;-144.24;100.00;60536.00;4979499;28;45626;-71
2023/11/09 02:58:56;;;;;;;;;2.67;1.00;;;;;-144.24;100.00;60536.00;4981964;28;45472;-75
2023/11/09 03:01:21;;;;;;;;;6.00;0.00;;;;;-144.24;100.00;60536.00;4988813;28;45741;-70
2023/11/09 03:03:47;;;;;;;;;2.00;0.00;;;;;-144.24;100.00;60536.00;4985142;28;45382;-75
2023/11/09 03:06:14;;;;;;;;;2.00;1.00;;;;;-144.24;100.00;60536.00;4979732;28;46306;-72
2023/11/09 03:08:41;;;;;;;;;2.00;0.67;;;;;-144.24;100.00;60536.00;4978625;28;45427;-72
2023/11/09 03:11:07;;;;;;;;;2.00;1.00;;;;;-144.24;100.00;60536.00;4981284;28;45458;-74
2023/11/09 03:13:34;;;;;;;;;4.00;0.67;;;;;-144.24;100.00;60536.00;4979822;28;45475;-73
2023/11/09 03:15:59;;;;;;;;;1.33;1.00;;;;;-144.24;100.00;60536.00;4978780;28;47621;-71
2023/11/09 03:18:24;;;;;;;;;0.00;0.00;;;;;-144.24;100.00;60536.00;4978948;28;67208;-72
2023/11/09 03:20:50;;;;;;;;;3.00;1.00;;;;;-144.24;100.00;60536.00;4983156;28;62410;-72
2023/11/09 03:23:16;;;;;;;;;5.00;2.00;;;;;-144.24;100.00;60536.00;4982623;28;45529;-71
2023/11/09 03:25:41;;;;;;;;;0.00;0.00;;;;;-144.24;100.00;60536.00;4979885;28;46318;-72
2023/11/09 03:28:07;;;;;;;;;0.33;0.00;;;;;-144.24;100.00;60536.00;4983328;28;45411;-72
2023/11/09 03:30:33;;;;;;;;;1.33;1.00;;;;;-144.24;100.00;60536.00;4989266;28;46358;-73
2023/11/09 03:32:59;;;;;;;;;0.33;0.33;;;;;-144.24;100.00;60536.00;4985615;28;45547;-71
2023/11/09 03:35:24;;;;;;;;;1.00;1.00;;;;;-144.24;100.00;60536.00;4983750;28;75117;-71
2023/11/09 03:37:49;;;;;;;;;2.00;0.67;;;;;-144.24;100.00;60536.00;4977519;28;72021;-71
2023/11/09 03:40:15;;;;;;;;;2.00;0.67;;;;;-144.24;100.00;60536.00;4979152;28;58946;-74
2023/11/09 03:42:40;;;;;;;;;4.00;1.33;;;;;-144.24;100.00;60536.00;4978392;28;45261;-72
2023/11/09 03:45:07;;;;;;;;;1.33;1.00;;;;;-144.24;100.00;60536.00;4991375;28;46237;-75
2023/11/09 03:47:33;;;;;;;;;2.33;1.00;;;;;-144.24;100.00;60536.00;4979680;28;45267;-72
2023/11/09 03:49:58;;;;;;;;;0.00;0.00;;;;;-144.24;100.00;60536.00;4978282;28;45487;-71
2023/11/09 03:52:27;;;;;;;;;2.00;0.00;;;;;-144.24;100.00;60536.00;4978797;28;68070;-70
2023/11/09 03:54:52;;;;;;;;;1.00;1.00;;;;;-144.24;100.00;60536.00;4979214;28;46615;-71
2023/11/09 03:57:17;;;;;;;;;0.67;0.33;;;;;-144.24;100.00;60536.00;4983698;28;45407;-73
2023/11/09 03:59:43;;;;;;;;;2.00;1.00;;;;;-144.24;100.00;60536.00;4979459;28;69172;-72
2023/11/09 04:02:08;;;;;;;;;2.33;0.00;;;;;-144.24;100.00;60536.00;4979747;28;67318;-71
2023/11/09 04:04:33;;;;;;;;;4.00;0.33;;;;;-144.24;100.00;60536.00;4977357;28;77014;-73
2023/11/09 04:06:59;;;;;;;;;5.00;2.00;;;;;-144.24;100.00;60536.00;4976643;28;71272;-70
2023/11/09 04:09:24;;;;;;;;;0.67;0.67;;;;;-144.24;100.00;60536.00;4986591;28;45391;-71
2023/11/09 04:11:49;;;;;;;;;0.33;0.33;;;;;-144.24;100.00;60536.00;4980972;28;45280;-70
2023/11/09 04:14:15;;;;;;;;;1.00;1.00;;;;;-144.24;100.00;60536.00;5000028;28;56362;-74
2023/11/09 04:16:40;;;;;;;;;2.67;1.00;;;;;-144.24;100.00;60536.00;4982488;28;69858;-72
2023/11/09 04:19:07;;;;;;;;;2.33;1.00;;;;;-144.24;100.00;60536.00;4981803;28;45415;-74
2023/11/09 04:21:33;;;;;;;;;2.33;1.00;;;;;-144.24;100.00;60536.00;4981118;28;45818;-70
2023/11/09 04:23:59;;;;;;;;;3.00;0.00;;;;;-144.24;100.00;60536.00;4984378;28;45640;-72
2023/11/09 04:26:24;;;;;;;;;2.33;1.33;;;;;-144.24;100.00;60536.00;4982932;28;45295;-71
2023/11/09 04:28:51;;;;;;;;;2.33;0.33;;;;;-144.24;100.00;60536.00;4977315;28;45461;-71
2023/11/09 04:31:20;;;;;;;;;4.00;1.00;;;;;-144.24;100.00;60536.00;4979329;28;45486;-71
2023/11/09 04:33:46;;;;;;;;;2.67;0.00;;;;;-144.24;100.00;60536.00;4981886;28;46768;-72
2023/11/09 04:36:11;;;;;;;;;7.00;1.00;;;;;-144.24;100.00;60536.00;4977783;28;45371;-72
2023/11/09 04:38:38;;;;;;;;;0.00;0.00;;;;;-144.24;100.00;60536.00;4984802;28;46555;-71
2023/11/09 04:41:09;;;;;;;;;3.67;1.00;;;;;-144.24;100.00;60536.00;4979826;28;45335;-73
2023/11/09 04:43:39;;;;;;;;;3.00;1.00;;;;;-144.24;100.00;60536.00;4981976;28;46414;-74
2023/11/09 04:46:13;;;;;;;;;5.33;1.00;;;;;-144.24;100.00;60536.00;4981108;28;45243;-70
2023/11/09 04:48:44;;;;;;;;;1.00;1.00;;;;;-144.24;100.00;60536.00;4978661;28;45451;-69
2023/11/09 04:51:22;;;;;;;;;1.00;1.00;;;;;-144.24;100.00;60536.00;4975099;28;45414;-70
2023/11/09 04:53:48;;;;;;;;;2.33;1.00;;;;;-144.24;100.00;60536.00;4981423;28;47499;-72
2023/11/09 04:56:30;;;;;;;;;1.33;1.00;;;;;-144.24;100.00;60536.00;4983709;28;45390;-71
2023/11/09 04:59:02;;;;;;;;;1.67;0.00;;;;;-144.24;100.00;60536.00;4976136;28;45410;-70
2023/11/09 05:06:57;;;;;;;;;4.00;1.00;;;;;-144.24;100.00;60536.00;4981851;28;45441;-73
2023/11/09 05:09:23;;;;;;;;;5.33;1.00;;;;;-144.24;100.00;60536.00;4981577;28;67546;-71
2023/11/09 05:11:49;;;;;;;;;2.00;2.00;;;;;-144.24;100.00;60536.00;4984750;28;45427;-74
2023/11/09 05:14:15;;;;;;;;;4.00;1.33;;;;;-144.24;100.00;60536.00;4980291;28;46891;-73
2023/11/09 05:16:41;;;;;;;;;2.33;1.00;;;;;-144.24;100.00;60536.00;4978603;28;45295;-71
2023/11/09 05:19:07;;;;;;;;;3.33;0.67;;;;;-144.24;100.00;60536.00;4982581;28;45254;-70
2023/11/09 05:21:32;;;;;;;;;2.33;1.33;;;;;-144.24;100.00;60536.00;4981006;28;45183;-71
2023/11/09 05:23:58;;;;;;;;;1.00;0.33;;;;;-144.24;100.00;60536.00;4977110;28;70709;-73
2023/11/09 05:26:25;;;;;;;;;3.00;2.00;;;;;-144.24;100.00;60536.00;4976273;28;67840;-71
2023/11/09 05:28:51;;;;;;;;;1.00;0.00;;;;;-144.24;100.00;60536.00;4981004;28;45478;-73
2023/11/09 05:31:17;;;;;;;;;5.67;2.00;;;;;-144.24;100.00;60536.00;4977455;28;45478;-70
2023/11/09 05:33:44;;;;;;;;;4.00;1.00;;;;;-144.24;100.00;60536.00;4985648;28;46619;-71
2023/11/09 05:36:10;;;;;;;;;3.00;2.00;;;;;-144.24;100.00;60536.00;4978348;28;45423;-74
2023/11/09 05:38:36;;;;;;;;;1.67;1.00;;;;;-144.24;100.00;60536.00;4981444;28;45356;-70
2023/11/09 05:41:04;;;;;;;;;3.00;1.00;;;;;-144.24;100.00;60536.00;4981882;28;45200;-75
2023/11/09 05:43:29;;;;;;;;;6.00;1.33;;;;;-144.24;100.00;60536.00;4985702;28;45781;-73
2023/11/09 05:45:54;;;;;;;;;1.00;1.00;;;;;-144.24;100.00;60536.00;4976329;28;48454;-73
2023/11/09 05:48:19;;;;;;;;;4.33;1.00;;;;;-144.24;100.00;60536.00;4976049;28;69616;-70
2023/11/09 05:50:45;;;;;;;;;1.00;1.00;;;;;-144.24;100.00;60536.00;4975476;28;68070;-73
2023/11/09 05:53:10;;;;;;;;;2.33;2.00;;;;;-144.24;100.00;60536.00;4976196;28;45923;-75
2023/11/09 05:55:36;;;;;;;;;3.00;1.67;;;;;-144.24;100.00;60536.00;4983415;28;74208;-71
2023/11/09 05:58:01;;;;;;;;;4.00;0.00;;;;;-144.24;100.00;60536.00;4977338;28;45376;-74
2023/11/09 06:00:28;;;;;;;;;3.33;1.00;;;;;-144.24;100.00;60536.00;4977377;28;45407;-71
2023/11/09 06:02:53;;;;;;;;;4.00;1.00;;;;;-144.24;100.00;60536.00;4978705;28;46491;-70
2023/11/09 06:05:18;;;;;;;;;1.00;1.00;;;;;-144.24;100.00;60536.00;4974753;28;45402;-70
2023/11/09 06:07:44;;;;;;;;;3.00;2.00;;;;;-144.24;100.00;60536.00;4980344;28;45355;-70
2023/11/09 06:10:11;;;;;;;;;1.33;1.00;;;;;-144.24;100.00;60536.00;4986188;28;46378;-73
2023/11/09 06:12:37;;;;;;;;;1.33;1.33;;;;;-144.24;100.00;60536.00;4983643;28;46610;-71
2023/11/09 06:15:04;;;;;;;;;5.67;1.00;;;;;-144.24;100.00;60536.00;4981207;28;45300;-72
2023/11/09 06:17:29;;;;;;;;;3.00;1.00;;;;;-144.24;100.00;60536.00;4979625;28;45294;-73
2023/11/09 06:19:58;;;;;;;;;2.00;2.00;;;;;-144.24;100.00;60536.00;4989614;28;67081;-71
2023/11/09 06:22:23;;;;;;;;;4.00;1.67;;;;;-144.24;100.00;60536.00;4981248;28;46609;-70
2023/11/09 06:24:48;;;;;;;;;3.00;1.67;;;;;-144.24;100.00;60536.00;4973300;28;71977;-72
2023/11/09 06:27:17;;;;;;;;;4.00;1.00;;;;;-144.24;100.00;60536.00;4977703;28;66844;-71
2023/11/09 06:29:42;;;;;;;;;4.00;2.00;;;;;-144.24;100.00;60536.00;4977515;28;45449;-71
2023/11/09 06:32:08;;;;;;;;;2.00;1.00;;;;;-144.24;100.00;60536.00;4978973;28;45819;-70
2023/11/09 06:34:34;;;;;;;;;3.33;2.33;;;;;-144.24;100.00;60536.00;4977662;28;45287;-70
2023/11/09 06:37:00;;;;;;;;;6.00;2.00;;;;;-144.24;100.00;60536.00;4980670;28;45509;-72
2023/11/09 06:39:26;;;;;;;;;1.00;1.00;;;;;-144.24;100.00;60536.00;4979676;28;45715;-71
2023/11/09 06:41:51;;;;;;;;;4.00;1.00;;;;;-144.24;100.00;60536.00;4981198;28;46733;-71
2023/11/09 06:44:17;;;;;;;;;6.00;1.00;;;;;-144.24;100.00;60536.00;4976989;28;46515;-71
2023/11/09 06:46:43;;;;;;;;;7.00;1.67;;;;;-144.24;100.00;60536.00;4976474;28;45502;-71
2023/11/09 06:49:08;;;;;;;;;3.00;1.00;;;;;-144.24;100.00;60536.00;4975938;28;45430;-70
2023/11/09 06:51:34;;;;;;;;;2.00;2.00;;;;;-144.24;100.00;60536.00;4971683;28;67554;-71
2023/11/09 06:54:00;;;;;;;;;3.67;1.33;;;;;-144.24;100.00;60536.00;4969609;28;45471;-69
2023/11/09 06:56:27;;;;;;;;;4.00;1.00;;;;;-144.24;100.00;60536.00;4972490;28;45527;-73
2023/11/09 06:58:53;;;;;;;;;2.67;2.00;;;;;-144.24;100.00;60536.00;4966946;28;45252;-71
2023/11/09 07:01:19;;;;;;;;;2.33;2.00;;;;;-144.24;100.00;60536.00;4971937;28;45782;-71
2023/11/09 07:03:44;;;;;;;;;1.00;1.00;;;;;-144.24;100.00;60536.00;4963889;28;45234;-71
2023/11/09 07:06:11;;;;;;;;;2.00;1.00;;;;;-144.24;100.00;60536.00;4975735;28;54903;-72
2023/11/09 07:08:36;;;;;;;;;2.00;1.67;;;;;-144.24;100.00;60536.00;4965299;28;45701;-72
2023/11/09 07:11:02;;;;;;;;;2.67;2.00;;;;;-144.24;100.00;60536.00;4967945;28;63480;-70
2023/11/09 07:13:27;;;;;;;;;5.00;1.00;;;;;-144.24;100.00;60536.00;4964914;28;45483;-71
2023/11/09 07:15:52;;;;;;;;;1.00;1.00;;;;;-144.24;100.00;60536.00;4972453;28;59988;-70
2023/11/09 07:18:18;;;;;;;;;2.67;1.67;;;;;-144.24;100.00;60536.00;4973737;28;45463;-70
2023/11/09 07:20:44;;;;;;;;;4.67;2.00;;;;;-144.24;100.00;60536.00;4967844;28;46803;-72
2023/11/09 07:23:09;;;;;;;;;3.00;1.67;;;;;-144.24;100.00;60536.00;4964117;28;52053;-70
2023/11/09 07:25:36;;;;;;;;;2.00;2.00;;;;;-144.24;100.00;60536.00;4969465;28;45603;-68
2023/11/09 07:28:03;;;;;;;;;4.00;1.00;;;;;-144.24;100.00;60536.00;4973803;28;47033;-69
2023/11/09 07:30:31;;;;;;;;;4.00;1.00;;;;;-144.24;100.00;60536.00;4968146;28;46372;-71
2023/11/09 07:32:58;;;;;;;;;4.00;0.00;;;;;-144.24;100.00;60536.00;4975404;28;45596;-72
2023/11/09 07:35:24;;;;;;;;;1.00;1.00;;;;;-144.24;100.00;60536.00;4979413;28;45931;-73
2023/11/09 07:37:50;;;;;;;;;2.00;1.00;;;;;-144.24;100.00;60536.00;4975229;28;46209;-73
2023/11/09 07:40:15;;;;;;;;;2.00;1.00;;;;;-144.24;100.00;60536.00;4977372;28;46435;-73
2023/11/09 07:42:43;;;;;;;;;4.00;1.00;;;;;-144.24;100.00;60536.00;4972502;28;74212;-74
2023/11/09 07:45:10;;;;;;;;;3.00;1.00;;;;;-144.24;100.00;60536.00;4970710;28;45592;-72
2023/11/09 07:47:35;;;;;;;;;6.33;2.00;;;;;-144.24;100.00;60536.00;5095175;23;46895;-72
2023/11/09 07:50:04;;;;;;;;;7.33;2.00;;;;;-144.24;100.00;60536.00;4969310;28;46599;-72
2023/11/09 07:52:30;;;;;;;;;6.00;2.00;;;;;-144.24;100.00;60536.00;4975231;28;45561;-72
2023/11/09 07:54:56;;;;;;;;;1.00;1.00;;;;;-144.24;100.00;60536.00;4970263;28;45375;-72
2023/11/09 07:57:21;;;;;;;;;2.67;2.00;;;;;-144.24;100.00;60536.00;4971650;28;46952;-73
2023/11/09 07:59:47;;;;;;;;;12.00;3.00;;;;;-144.24;100.00;60536.00;4966246;28;75387;-72
2023/11/09 08:02:12;;;;;;;;;4.33;2.00;;;;;-144.24;100.00;60536.00;4970188;28;73506;-72
2023/11/09 08:04:41;;;;;;;;;1.67;1.00;;;;;-144.24;100.00;60536.00;4974164;28;45364;-69
2023/11/09 08:07:07;;;;;;;;;8.00;1.00;;;;;-144.24;100.00;60536.00;4974848;28;45403;-70
2023/11/09 08:09:32;;;;;;;;;1.67;1.67;;;;;-144.24;100.00;60536.00;4973655;28;48555;-70
2023/11/09 08:11:57;;;;;;;;;2.00;2.00;;;;;-144.24;100.00;60536.00;4971893;28;45395;-69
2023/11/09 08:14:23;;;;;;;;;5.67;2.00;;;;;-144.24;100.00;60536.00;4975352;28;60170;-71
2023/11/09 08:16:48;;;;;;;;;3.00;2.00;;;;;-144.24;100.00;60536.00;4971990;28;60477;-71
2023/11/09 08:19:13;;;;;;;;;3.33;3.33;;;;;-144.24;100.00;60536.00;4969638;28;75874;-70
2023/11/09 08:21:39;;;;;;;;;8.00;2.00;;;;;-144.24;100.00;60536.00;4975254;28;45693;-70
2023/11/09 08:24:05;;;;;;;;;3.33;2.33;;;;;-144.24;100.00;60536.00;4969979;28;45672;-71
2023/11/09 08:26:32;;;;;;;;;6.33;2.00;;;;;-144.24;100.00;60536.00;4975771;28;45475;-73
2023/11/09 08:28:58;;;;;;;;;2.00;2.00;;;;;-144.24;100.00;60536.00;4975333;28;47544;-72
2023/11/09 08:31:25;;;;;;;;;4.33;1.67;;;;;-144.24;100.00;60536.00;4970609;28;45344;-69
2023/11/09 08:33:50;;;;;;;;;3.33;2.33;;;;;-144.24;100.00;60536.00;4971646;28;45663;-70
2023/11/09 08:36:16;;;;;;;;;1.00;1.00;;;;;-144.24;100.00;60536.00;4972493;28;45543;-70
2023/11/09 08:38:41;;;;;;;;;4.33;2.00;;;;;-144.24;100.00;60536.00;4975081;28;45448;-70
2023/11/09 08:41:07;;;;;;;;;2.67;2.00;;;;;-144.24;100.00;60536.00;4974317;28;45394;-70
2023/11/09 08:43:33;;;;;;;;;3.00;1.67;;;;;-144.24;100.00;60536.00;4968912;28;47034;-70
2023/11/09 08:46:02;;;;;;;;;4.00;4.00;;;;;-144.24;100.00;60536.00;4968546;28;45550;-70
2023/11/09 08:48:27;;;;;;;;;2.00;2.00;;;;;-144.24;100.00;60536.00;4972227;28;45853;-71
2023/11/09 08:50:55;;;;;;;;;3.00;2.00;;;;;-144.24;100.00;60536.00;4974666;28;45433;-70
2023/11/09 08:53:21;;;;;;;;;2.67;1.67;;;;;-144.24;100.00;60536.00;4971469;28;45493;-70
2023/11/09 08:55:46;;;;;;;;;4.00;2.33;;;;;-144.24;100.00;60536.00;4974083;28;45464;-71
2023/11/09 08:58:11;;;;;;;;;3.00;1.00;;;;;-144.24;100.00;60536.00;4974053;28;51196;-69
2023/11/09 09:00:37;;;;;;;;;4.00;2.00;;;;;-144.24;100.00;60536.00;4970091;28;70413;-70
2023/11/09 09:03:03;;;;;;;;;4.33;2.00;;;;;-144.24;100.00;60536.00;4975459;28;45557;-70
2023/11/09 09:05:28;;;;;;;;;5.33;2.00;;;;;-144.24;100.00;60536.00;4969676;28;45474;-69
2023/11/09 09:08:00;;;;;;;;;2.00;2.00;;;;;-144.24;100.00;60536.00;4973137;28;46412;-70
2023/11/09 09:10:27;;;;;;;;;9.00;2.00;;;;;-144.24;100.00;60536.00;4974380;28;45646;-71
2023/11/09 09:12:53;;;;;;;;;3.67;1.00;;;;;-144.24;100.00;60536.00;4972948;28;45433;-70
2023/11/09 09:15:19;;;;;;;;;3.67;3.67;;;;;-144.24;100.00;60536.00;4968831;28;46736;-71
2023/11/09 09:17:48;;;;;;;;;7.00;2.00;;;;;-144.24;100.00;60536.00;4967579;28;46240;-71
2023/11/09 09:20:18;;;;;;;;;3.00;1.67;;;;;-144.24;100.00;60536.00;4974578;28;45550;-72
2023/11/09 09:22:45;;;;;;;;;4.00;1.67;;;;;-144.24;100.00;60536.00;4971911;28;45509;-70
2023/11/09 09:25:11;;;;;;;;;2.67;1.00;;;;;-144.24;100.00;60536.00;4970464;28;47020;-70
2023/11/09 09:27:43;;;;;;;;;2.00;2.00;;;;;-144.24;100.00;60536.00;4970957;28;46579;-70
2023/11/09 09:30:10;;;;;;;;;5.00;2.33;;;;;-144.24;100.00;60536.00;4972246;28;46601;-70
2023/11/09 09:32:46;;;;;;;;;7.67;2.33;;;;;-144.24;100.00;60536.00;4975603;28;45473;-69
2023/11/09 09:35:12;;;;;;;;;4.00;3.00;;;;;-144.24;100.00;60536.00;4970355;28;45712;-71
2023/11/09 09:37:42;;;;;;;;;2.33;2.00;;;;;-144.24;100.00;60536.00;4969540;28;45631;-70
2023/11/09 09:40:14;;;;;;;;;9.67;2.67;;;;;-144.24;100.00;60536.00;4970793;28;45378;-71
2023/11/09 09:42:44;;;;;;;;;7.33;3.00;;;;;-144.24;100.00;60536.00;4967824;28;45510;-71
2023/11/09 09:45:33;;;;;;;;;4.00;2.33;;;;;-144.24;100.00;60536.00;4967595;28;45312;-69
2023/11/09 09:48:01;;;;;;;;;8.00;2.33;;;;;-144.24;100.00;60536.00;4968709;28;46355;-70
2023/11/09 09:50:29;;;;;;;;;3.67;2.00;;;;;-144.24;100.00;60536.00;4970599;28;45568;-70
2023/11/09 09:52:57;;;;;;;;;4.00;2.67;;;;;-144.24;100.00;60536.00;4967292;28;45340;-69
2023/11/09 09:55:27;;;;;;;;;2.00;2.00;;;;;-144.24;100.00;60536.00;4983913;28;45860;-69
2023/11/09 09:57:59;;;;;;;;;4.33;2.00;;;;;-144.24;100.00;60536.00;4971515;28;46478;-70
2023/11/09 10:00:26;;;;;;;;;5.00;2.00;;;;;-144.24;100.00;60536.00;4969238;28;45272;-69
2023/11/09 10:02:56;;;;;;;;;3.67;2.33;;;;;-144.24;100.00;60536.00;4973988;28;45422;-69
2023/11/09 10:05:29;;;;;;;;;3.67;3.00;;;;;-144.24;100.00;60536.00;4969966;28;45441;-69
2023/11/09 10:08:23;;;;;;;;;6.33;4.00;;;;;-144.24;100.00;60536.00;4966053;28;45555;-69
2023/11/09 10:10:50;;;;;;;;;8.00;3.00;;;;;-144.24;100.00;60536.00;4963200;28;45468;-70
2023/11/09 10:13:18;;;;;;;;;2.00;2.00;;;;;-144.24;100.00;60536.00;4967390;28;45474;-69
2023/11/09 10:15:44;;;;;;;;;3.00;3.00;;;;;-144.24;100.00;60536.00;4965705;28;45469;-68
2023/11/09 10:18:11;;;;;;;;;3.00;2.00;;;;;-144.24;100.00;60536.00;4968061;28;46990;-70
2023/11/09 10:20:37;;;;;;;;;4.00;2.33;;;;;-144.24;100.00;60536.00;4974193;28;45449;-70
2023/11/09 10:23:04;;;;;;;;;5.33;2.00;;;;;-144.24;100.00;60536.00;4970550;28;45440;-70
2023/11/09 10:25:31;;;;;;;;;6.67;1.00;;;;;-144.24;100.00;60536.00;4965447;28;45517;-71
2023/11/09 10:28:01;;;;;;;;;3.00;3.00;;;;;-144.24;100.00;60536.00;4970003;28;45695;-70
2023/11/09 10:30:40;;;;;;;;;4.00;1.00;;;;;-144.24;100.00;60536.00;4969658;28;45465;-69
2023/11/09 10:33:07;;;;;;;;;5.00;0.00;;;;;-144.24;100.00;60536.00;4982784;28;46906;-71
2023/11/09 10:35:35;;;;;;;;;3.00;1.33;;;;;-144.24;100.00;60536.00;4969890;28;45547;-70
2023/11/09 10:38:01;;;;;;;;;1.67;1.67;;;;;-144.24;100.00;60536.00;4971803;28;46640;-72
2023/11/09 10:40:30;;;;;;;;;2.33;2.33;;;;;-144.24;100.00;60536.00;4973334;28;45529;-70
2023/11/09 10:43:00;;;;;;;;;5.67;2.67;;;;;-144.24;100.00;60536.00;4966287;28;45423;-69
2023/11/09 10:45:26;;;;;;;;;1.00;1.00;;;;;-144.24;100.00;60536.00;4985782;28;45517;-71
2023/11/09 10:47:52;;;;;;;;;8.00;2.00;;;;;-144.24;100.00;60536.00;4965666;28;47172;-71
2023/11/09 10:50:20;;;;;;;;;4.00;2.33;;;;;-144.24;100.00;60536.00;4982283;28;71950;-71
2023/11/09 10:52:46;;;;;;;;;5.33;2.00;;;;;-144.24;100.00;60536.00;4967426;28;45472;-70
2023/11/09 10:55:11;;;;;;;;;12.00;1.67;;;;;-144.24;100.00;60536.00;4967246;28;64281;-69
2023/11/09 10:57:40;;;;;;;;;4.00;2.33;;;;;-144.24;100.00;60536.00;4970093;28;47792;-69
2023/11/09 11:00:10;;;;;;;;;2.00;2.00;;;;;-144.24;100.00;60536.00;4971142;28;45719;-70
2023/11/09 11:02:53;;;;;;;;;5.33;2.00;;;;;-144.24;100.00;60536.00;4961912;28;46010;-70
2023/11/09 11:05:22;;;;;;;;;3.67;2.00;;;;;-144.24;100.00;60536.00;4978375;28;45354;-71
2023/11/09 11:07:50;;;;;;;;;6.00;2.00;;;;;-144.24;100.00;60536.00;4970315;28;46622;-71
2023/11/09 11:10:17;;;;;;;;;3.33;2.00;;;;;-144.24;100.00;60536.00;4971231;28;45490;-69
2023/11/09 11:12:44;;;;;;;;;6.33;2.00;;;;;-144.24;100.00;60536.00;4972942;28;45563;-69